Time;durP1;ratioP1;P1;durP2;ratioP2;P2;SDS_P1;SDS_P2;PMS_P1;PMS_P2;Temp;Humidity;BMP_temperature;BMP_pressure;BME280_temperature;BME280_humidity;BME280_pressure;Samples;Min_cycle;Max_cycle;Signal;HPM_P1;HPM_P2
2022/01/06 00:01:17;;;;;;;4.20;1.53;;;;;;;;;;5056268;28;20500;-73
2022/01/06 00:03:45;;;;;;;1.10;0.60;;;;;;;;;;5055982;28;20479;-73
2022/01/06 00:06:12;;;;;;;2.47;1.40;;;;;;;;;;5055877;28;20464;-73
2022/01/06 00:08:40;;;;;;;1.63;0.93;;;;;;;;;;5056748;28;20870;-73
2022/01/06 00:11:10;;;;;;;1.20;0.60;;;;;;;;;;5057819;28;20510;-73
2022/01/06 00:13:51;;;;;;;11.90;1.87;;;;;;;;;;5059719;28;20891;-73
2022/01/06 00:16:29;;;;;;;2.50;0.80;;;;;;;;;;5059509;28;20710;-73
2022/01/06 00:24:29;;;;;;;2.47;1.10;;;;;;;;;;5059708;28;20464;-74
2022/01/06 00:26:57;;;;;;;4.27;2.03;;;;;;;;;;5060264;28;20445;-73
2022/01/06 00:29:25;;;;;;;3.63;1.20;;;;;;;;;;5059697;28;20518;-74
2022/01/06 00:31:52;;;;;;;1.77;0.70;;;;;;;;;;5060122;28;20541;-73
2022/01/06 00:34:21;;;;;;;5.70;1.13;;;;;;;;;;5059885;28;20556;-73
2022/01/06 00:36:49;;;;;;;1.53;0.93;;;;;;;;;;5060684;28;21005;-73
2022/01/06 00:39:16;;;;;;;4.90;0.97;;;;;;;;;;5058820;28;20576;-73
2022/01/06 00:41:43;;;;;;;2.33;1.37;;;;;;;;;;5060145;28;20726;-73
2022/01/06 00:44:10;;;;;;;2.20;0.77;;;;;;;;;;5060467;28;20493;-73
2022/01/06 00:46:37;;;;;;;3.03;0.80;;;;;;;;;;5059231;28;20457;-73
2022/01/06 00:49:05;;;;;;;1.90;0.87;;;;;;;;;;5058903;28;20462;-73
2022/01/06 00:51:33;;;;;;;3.13;0.97;;;;;;;;;;5058951;28;20854;-73
2022/01/06 00:54:00;;;;;;;1.60;0.90;;;;;;;;;;5059650;28;20454;-73
2022/01/06 00:56:27;;;;;;;2.70;0.80;;;;;;;;;;5058776;28;20445;-73
2022/01/06 00:58:54;;;;;;;5.23;1.03;;;;;;;;;;5058848;28;20480;-73
2022/01/06 01:01:22;;;;;;;2.80;1.27;;;;;;;;;;5059009;28;20894;-73
2022/01/06 01:03:49;;;;;;;3.30;0.70;;;;;;;;;;5060259;28;20741;-73
2022/01/06 01:06:16;;;;;;;1.90;1.07;;;;;;;;;;5059057;28;20445;-73
2022/01/06 01:08:44;;;;;;;1.20;0.60;;;;;;;;;;5059853;28;20882;-73
2022/01/06 01:11:11;;;;;;;1.93;1.00;;;;;;;;;;5059755;28;20488;-73
2022/01/06 01:13:54;;;;;;;1.57;0.90;;;;;;;;;;5058854;28;20457;-73
2022/01/06 01:16:24;;;;;;;1.80;0.93;;;;;;;;;;5059451;28;20865;-73
2022/01/06 01:18:52;;;;;;;2.70;1.60;;;;;;;;;;5058397;28;20454;-73
2022/01/06 01:21:20;;;;;;;2.60;1.13;;;;;;;;;;5058135;28;20502;-73
2022/01/06 01:23:48;;;;;;;1.80;1.00;;;;;;;;;;5057921;28;20550;-73
2022/01/06 01:26:15;;;;;;;3.00;0.90;;;;;;;;;;5058793;28;20457;-74
2022/01/06 01:28:45;;;;;;;1.93;1.20;;;;;;;;;;5058444;28;20493;-73
2022/01/06 01:31:23;;;;;;;1.60;0.90;;;;;;;;;;5058052;28;20510;-73
2022/01/06 01:33:52;;;;;;;1.50;0.80;;;;;;;;;;5058249;28;20534;-73
2022/01/06 01:36:19;;;;;;;1.70;0.90;;;;;;;;;;5059731;28;20502;-73
2022/01/06 01:38:48;;;;;;;5.13;1.77;;;;;;;;;;5058724;28;20783;-73
2022/01/06 01:41:15;;;;;;;2.93;0.70;;;;;;;;;;5059386;28;20995;-74
2022/01/06 01:43:43;;;;;;;2.33;1.33;;;;;;;;;;5059195;28;20506;-73
2022/01/06 01:46:13;;;;;;;1.87;1.43;;;;;;;;;;5059238;28;20453;-74
2022/01/06 01:48:44;;;;;;;2.27;0.93;;;;;;;;;;5058504;28;20457;-73
2022/01/06 01:51:12;;;;;;;6.40;3.20;;;;;;;;;;5059605;28;20496;-73
2022/01/06 01:53:39;;;;;;;1.57;0.77;;;;;;;;;;5059327;28;20484;-73
2022/01/06 01:56:09;;;;;;;2.10;1.00;;;;;;;;;;5058652;28;20450;-73
2022/01/06 01:58:37;;;;;;;5.40;0.93;;;;;;;;;;5059561;28;20579;-73
2022/01/06 02:01:05;;;;;;;1.63;1.17;;;;;;;;;;5058332;28;20492;-73
2022/01/06 02:03:32;;;;;;;1.83;0.83;;;;;;;;;;5058566;28;20442;-73
2022/01/06 02:05:59;;;;;;;1.73;1.00;;;;;;;;;;5059842;28;20942;-73
2022/01/06 02:08:26;;;;;;;5.73;1.23;;;;;;;;;;5058150;28;20720;-73
2022/01/06 02:10:54;;;;;;;2.30;0.80;;;;;;;;;;5058912;28;20461;-73
2022/01/06 02:13:27;;;;;;;4.63;1.27;;;;;;;;;;5058586;28;20469;-73
2022/01/06 02:15:55;;;;;;;2.47;0.93;;;;;;;;;;5057899;28;20457;-73
2022/01/06 02:18:22;;;;;;;3.37;1.40;;;;;;;;;;5058622;28;20461;-73
2022/01/06 02:20:50;;;;;;;1.40;0.83;;;;;;;;;;5058980;28;20480;-73
2022/01/06 02:23:18;;;;;;;2.80;1.37;;;;;;;;;;5058756;28;20553;-73
2022/01/06 02:25:45;;;;;;;2.67;0.93;;;;;;;;;;5059875;28;20450;-73
2022/01/06 02:28:12;;;;;;;2.90;2.03;;;;;;;;;;5058612;28;20522;-73
2022/01/06 02:30:39;;;;;;;1.30;0.70;;;;;;;;;;5059575;28;20461;-73
2022/01/06 02:33:08;;;;;;;3.40;1.40;;;;;;;;;;5058115;28;20537;-73
2022/01/06 02:35:35;;;;;;;1.97;0.90;;;;;;;;;;5057799;28;20465;-73
2022/01/06 02:38:04;;;;;;;4.20;1.20;;;;;;;;;;5058936;28;20461;-73
2022/01/06 02:40:31;;;;;;;1.80;1.00;;;;;;;;;;5058929;28;20492;-73
2022/01/06 02:43:00;;;;;;;3.23;2.60;;;;;;;;;;5059143;28;20704;-73
2022/01/06 02:45:27;;;;;;;1.50;0.83;;;;;;;;;;5058168;28;20543;-74
2022/01/06 02:47:55;;;;;;;4.40;1.47;;;;;;;;;;5057530;28;20540;-73
2022/01/06 02:50:24;;;;;;;2.80;1.23;;;;;;;;;;5057908;28;20469;-73
2022/01/06 02:52:51;;;;;;;2.57;1.10;;;;;;;;;;5057284;28;20536;-73
2022/01/06 02:55:19;;;;;;;2.27;1.40;;;;;;;;;;5057185;28;20935;-74
2022/01/06 02:57:46;;;;;;;4.07;1.27;;;;;;;;;;5058056;28;20453;-73
2022/01/06 03:00:14;;;;;;;3.33;1.70;;;;;;;;;;5058240;28;20547;-73
2022/01/06 03:02:42;;;;;;;2.40;1.60;;;;;;;;;;5057635;28;20468;-73
2022/01/06 03:05:10;;;;;;;1.37;0.83;;;;;;;;;;5057566;28;20493;-74
2022/01/06 03:07:37;;;;;;;7.33;2.10;;;;;;;;;;5057706;28;20445;-73
2022/01/06 03:10:07;;;;;;;2.00;1.20;;;;;;;;;;5057656;28;20520;-74
2022/01/06 03:12:40;;;;;;;1.67;1.00;;;;;;;;;;5056936;28;20438;-74
2022/01/06 03:15:08;;;;;;;2.90;1.07;;;;;;;;;;5057370;28;20457;-74
2022/01/06 03:17:36;;;;;;;2.30;0.83;;;;;;;;;;5057549;28;20458;-74
2022/01/06 03:20:03;;;;;;;1.80;0.80;;;;;;;;;;5057065;28;20485;-74
2022/01/06 03:22:30;;;;;;;2.20;0.80;;;;;;;;;;5058544;28;20536;-74
2022/01/06 03:24:58;;;;;;;3.57;1.50;;;;;;;;;;5057374;28;20453;-74
2022/01/06 03:27:27;;;;;;;5.63;1.40;;;;;;;;;;5056674;28;20559;-74
2022/01/06 03:29:55;;;;;;;5.00;1.70;;;;;;;;;;5057120;28;20461;-74
2022/01/06 03:32:22;;;;;;;2.17;1.47;;;;;;;;;;5057115;28;20468;-74
2022/01/06 03:34:49;;;;;;;1.53;0.80;;;;;;;;;;5057171;28;20461;-73
2022/01/06 03:37:17;;;;;;;2.50;1.33;;;;;;;;;;5056423;28;20858;-74
2022/01/06 03:39:44;;;;;;;1.50;0.80;;;;;;;;;;5057219;28;20489;-74
2022/01/06 03:42:13;;;;;;;2.00;1.10;;;;;;;;;;5057452;28;20207;-74
2022/01/06 03:44:40;;;;;;;10.37;1.17;;;;;;;;;;5057198;28;20491;-74
2022/01/06 03:47:08;;;;;;;2.72;1.30;;;;;;;;;;5060146;28;20445;-74
2022/01/06 03:49:36;;;;;;;1.70;0.80;;;;;;;;;;5061483;28;20211;-74
2022/01/06 03:52:06;;;;;;;3.07;1.30;;;;;;;;;;5060727;28;20460;-74
2022/01/06 03:54:33;;;;;;;1.77;0.70;;;;;;;;;;5060594;28;20465;-74
2022/01/06 03:57:01;;;;;;;5.20;1.13;;;;;;;;;;5060524;28;20525;-75
2022/01/06 03:59:28;;;;;;;1.67;1.00;;;;;;;;;;5059672;28;20528;-74
2022/01/06 04:01:55;;;;;;;4.80;1.80;;;;;;;;;;5060366;28;20530;-74
2022/01/06 04:04:29;;;;;;;8.20;4.57;;;;;;;;;;5059733;28;20467;-74
2022/01/06 04:06:56;;;;;;;1.43;0.80;;;;;;;;;;5060031;28;20467;-74
2022/01/06 04:09:23;;;;;;;3.63;0.87;;;;;;;;;;5059797;28;20457;-75
2022/01/06 04:11:50;;;;;;;3.25;1.70;;;;;;;;;;5074474;28;20460;-74
2022/01/06 04:14:17;;;;;;;3.10;1.73;;;;;;;;;;5080622;28;20219;-74
2022/01/06 04:16:44;;;;;;;1.93;1.00;;;;;;;;;;5079401;28;20472;-74
2022/01/06 04:19:15;;;;;;;1.97;1.37;;;;;;;;;;5079520;28;20468;-74
2022/01/06 04:21:43;;;;;;;1.20;0.60;;;;;;;;;;5080068;28;20464;-74
2022/01/06 04:24:10;;;;;;;3.43;1.63;;;;;;;;;;5079448;28;20202;-74
2022/01/06 04:26:37;;;;;;;1.80;0.90;;;;;;;;;;5078922;28;20849;-74
2022/01/06 04:29:05;;;;;;;1.97;0.60;;;;;;;;;;5079602;28;20578;-74
2022/01/06 04:31:32;;;;;;;2.83;1.73;;;;;;;;;;5078923;28;20458;-74
2022/01/06 04:33:59;;;;;;;2.40;1.53;;;;;;;;;;5079651;28;20463;-76
2022/01/06 04:36:26;;;;;;;9.63;1.37;;;;;;;;;;5079731;28;20448;-75
2022/01/06 04:38:54;;;;;;;6.23;0.70;;;;;;;;;;5079264;28;20463;-75
2022/01/06 04:41:21;;;;;;;4.73;2.20;;;;;;;;;;5080909;28;20488;-74
2022/01/06 04:43:49;;;;;;;5.80;1.33;;;;;;;;;;5079507;28;20450;-75
2022/01/06 04:46:16;;;;;;;7.60;1.07;;;;;;;;;;5078370;28;20471;-75
2022/01/06 04:48:43;;;;;;;3.10;1.50;;;;;;;;;;5079600;28;20733;-75
2022/01/06 04:51:10;;;;;;;1.83;0.80;;;;;;;;;;5080084;28;20526;-74
2022/01/06 04:53:37;;;;;;;1.83;0.97;;;;;;;;;;5079667;28;20522;-74
2022/01/06 04:56:09;;;;;;;3.73;1.37;;;;;;;;;;5079871;28;20555;-74
2022/01/06 04:58:36;;;;;;;1.67;1.10;;;;;;;;;;5077358;28;20449;-74
2022/01/06 05:01:07;;;;;;;4.03;1.73;;;;;;;;;;5079801;28;20488;-74
2022/01/06 05:03:41;;;;;;;2.80;1.20;;;;;;;;;;5079688;28;20440;-73
2022/01/06 05:06:08;;;;;;;4.70;1.90;;;;;;;;;;5069818;28;20488;-75
2022/01/06 05:08:36;;;;;;;1.47;0.83;;;;;;;;;;5079034;28;20732;-75
2022/01/06 05:11:04;;;;;;;5.57;1.40;;;;;;;;;;5078261;28;20555;-74
2022/01/06 05:13:46;;;;;;;2.07;1.17;;;;;;;;;;5077250;28;20444;-75
2022/01/06 05:16:17;;;;;;;4.50;1.40;;;;;;;;;;5077268;28;20467;-75
2022/01/06 05:18:44;;;;;;;4.33;1.30;;;;;;;;;;5077694;28;20460;-74
2022/01/06 05:21:11;;;;;;;2.23;0.77;;;;;;;;;;5078195;28;21175;-75
2022/01/06 05:23:39;;;;;;;1.50;0.80;;;;;;;;;;5077732;28;20517;-74
2022/01/06 05:26:16;;;;;;;2.37;1.40;;;;;;;;;;5078433;28;20461;-75
2022/01/06 05:28:43;;;;;;;12.63;5.73;;;;;;;;;;5078520;28;20498;-75
2022/01/06 05:31:11;;;;;;;1.53;0.60;;;;;;;;;;5077968;28;20464;-75
2022/01/06 05:33:39;;;;;;;1.80;1.13;;;;;;;;;;5078039;28;20879;-75
2022/01/06 05:36:06;;;;;;;2.17;1.23;;;;;;;;;;5078074;28;20944;-74
2022/01/06 05:38:33;;;;;;;4.03;1.67;;;;;;;;;;5078449;28;20468;-74
2022/01/06 05:41:01;;;;;;;3.37;1.17;;;;;;;;;;5077873;28;20580;-75
2022/01/06 05:43:28;;;;;;;4.60;1.40;;;;;;;;;;5077756;28;20807;-74
2022/01/06 05:45:57;;;;;;;3.50;1.20;;;;;;;;;;5077738;28;20482;-75
2022/01/06 05:48:24;;;;;;;8.83;1.33;;;;;;;;;;5077791;28;20471;-75
2022/01/06 05:50:52;;;;;;;1.70;1.27;;;;;;;;;;5077531;28;20475;-75
2022/01/06 05:53:20;;;;;;;3.60;1.70;;;;;;;;;;5077747;28;20456;-75
2022/01/06 05:55:47;;;;;;;3.97;1.60;;;;;;;;;;5077775;28;20455;-74
2022/01/06 05:58:15;;;;;;;3.50;1.23;;;;;;;;;;5077601;28;20522;-74
2022/01/06 06:00:42;;;;;;;2.00;0.77;;;;;;;;;;5077619;28;20578;-75
2022/01/06 06:03:09;;;;;;;5.00;1.97;;;;;;;;;;5077914;28;20845;-74
2022/01/06 06:05:41;;;;;;;1.40;0.80;;;;;;;;;;5077281;28;20471;-75
2022/01/06 06:08:09;;;;;;;1.67;1.00;;;;;;;;;;5076488;28;20447;-75
2022/01/06 06:10:37;;;;;;;5.00;1.57;;;;;;;;;;5076921;28;20509;-74
2022/01/06 06:13:04;;;;;;;2.50;1.17;;;;;;;;;;5077205;28;20522;-74
2022/01/06 06:15:35;;;;;;;2.80;1.70;;;;;;;;;;5076799;28;20507;-75
2022/01/06 06:18:02;;;;;;;1.87;1.20;;;;;;;;;;5076397;28;20452;-74
2022/01/06 06:20:29;;;;;;;5.93;2.13;;;;;;;;;;5076503;28;20488;-75
2022/01/06 06:22:59;;;;;;;3.17;1.73;;;;;;;;;;5076535;28;20783;-74
2022/01/06 06:25:27;;;;;;;1.80;0.90;;;;;;;;;;5077712;28;20467;-74
2022/01/06 06:27:54;;;;;;;2.50;1.47;;;;;;;;;;5078053;28;20206;-75
2022/01/06 06:30:21;;;;;;;7.63;2.43;;;;;;;;;;5076355;28;20856;-75
2022/01/06 06:32:49;;;;;;;3.43;1.40;;;;;;;;;;5076086;28;20456;-74
2022/01/06 06:35:16;;;;;;;3.20;1.37;;;;;;;;;;5076851;28;20462;-75
2022/01/06 06:37:43;;;;;;;1.97;1.00;;;;;;;;;;5076580;28;20444;-75
2022/01/06 06:40:13;;;;;;;3.30;1.63;;;;;;;;;;5076378;28;20552;-74
2022/01/06 06:42:41;;;;;;;5.20;2.20;;;;;;;;;;5076198;28;20451;-75
2022/01/06 06:45:09;;;;;;;12.17;5.50;;;;;;;;;;5076832;28;20284;-74
2022/01/06 06:47:37;;;;;;;4.40;2.83;;;;;;;;;;5076499;28;20539;-75
2022/01/06 06:50:05;;;;;;;7.50;3.40;;;;;;;;;;5076527;28;20868;-74
2022/01/06 06:52:32;;;;;;;6.30;2.67;;;;;;;;;;5076408;28;20459;-75
2022/01/06 06:55:01;;;;;;;4.60;2.20;;;;;;;;;;5076212;28;20809;-75
2022/01/06 06:57:29;;;;;;;5.00;3.00;;;;;;;;;;5075689;28;20456;-74
2022/01/06 06:59:57;;;;;;;9.03;2.50;;;;;;;;;;5076463;28;20499;-75
2022/01/06 07:02:24;;;;;;;5.37;2.67;;;;;;;;;;5076290;28;20457;-75
2022/01/06 07:04:52;;;;;;;4.70;3.40;;;;;;;;;;5077947;28;20452;-75
2022/01/06 07:07:21;;;;;;;7.40;3.30;;;;;;;;;;5076788;28;20479;-75
2022/01/06 07:09:49;;;;;;;7.10;2.40;;;;;;;;;;5077662;28;20921;-74
2022/01/06 07:12:16;;;;;;;11.13;2.70;;;;;;;;;;5076273;28;20527;-75
2022/01/06 07:14:44;;;;;;;5.23;4.57;;;;;;;;;;5076642;28;20551;-76
2022/01/06 07:17:15;;;;;;;2.13;1.33;;;;;;;;;;5076363;28;20506;-75
2022/01/06 07:19:52;;;;;;;6.63;1.80;;;;;;;;;;5075450;28;21170;-75
2022/01/06 07:22:19;;;;;;;3.90;2.00;;;;;;;;;;5075541;28;20468;-75
2022/01/06 07:24:46;;;;;;;6.43;3.47;;;;;;;;;;5076323;28;20470;-74
2022/01/06 07:27:16;;;;;;;9.00;5.33;;;;;;;;;;5075877;28;20453;-74
2022/01/06 07:29:43;;;;;;;5.50;2.47;;;;;;;;;;5075652;28;20559;-74
2022/01/06 07:32:12;;;;;;;4.80;3.40;;;;;;;;;;5075849;28;20213;-74
2022/01/06 07:34:42;;;;;;;4.90;2.87;;;;;;;;;;5074906;28;20537;-74
2022/01/06 07:37:10;;;;;;;6.10;2.23;;;;;;;;;;5075753;28;20491;-75
2022/01/06 07:39:37;;;;;;;6.83;4.03;;;;;;;;;;5075765;28;20452;-75
2022/01/06 07:42:05;;;;;;;2.97;2.23;;;;;;;;;;5075460;28;20448;-75
2022/01/06 07:44:32;;;;;;;4.97;3.03;;;;;;;;;;5075078;28;20555;-74
2022/01/06 07:47:01;;;;;;;5.87;4.17;;;;;;;;;;5074934;28;20521;-74
2022/01/06 07:49:29;;;;;;;4.40;1.80;;;;;;;;;;5075365;28;20463;-74
2022/01/06 07:51:59;;;;;;;5.80;2.30;;;;;;;;;;5074817;28;20863;-75
2022/01/06 07:54:27;;;;;;;5.57;3.90;;;;;;;;;;5074843;28;20554;-74
2022/01/06 07:56:54;;;;;;;6.07;3.00;;;;;;;;;;5074991;28;20250;-75
2022/01/06 07:59:22;;;;;;;12.47;4.40;;;;;;;;;;5075496;28;20217;-75
2022/01/06 08:01:49;;;;;;;5.13;2.80;;;;;;;;;;5075056;28;20762;-75
2022/01/06 08:04:16;;;;;;;5.70;3.37;;;;;;;;;;5075207;28;20748;-75
2022/01/06 08:06:46;;;;;;;4.10;2.70;;;;;;;;;;5074326;28;20464;-75
2022/01/06 08:09:15;;;;;;;5.70;2.87;;;;;;;;;;5075487;28;20508;-75
2022/01/06 08:11:42;;;;;;;3.17;2.17;;;;;;;;;;5074231;28;20476;-75
2022/01/06 08:14:10;;;;;;;7.23;2.70;;;;;;;;;;5059141;28;20453;-76
2022/01/06 08:16:37;;;;;;;5.60;3.00;;;;;;;;;;5075064;28;20457;-75
2022/01/06 08:19:11;;;;;;;8.00;3.13;;;;;;;;;;5075201;28;20452;-76
2022/01/06 08:21:41;;;;;;;4.60;2.93;;;;;;;;;;5076259;28;20491;-75
2022/01/06 08:24:13;;;;;;;5.97;3.67;;;;;;;;;;5075093;28;20441;-76
2022/01/06 08:26:50;;;;;;;9.90;4.10;;;;;;;;;;5074417;28;20479;-76
2022/01/06 08:29:17;;;;;;;8.70;5.07;;;;;;;;;;5075800;28;20868;-75
2022/01/06 08:31:47;;;;;;;6.63;4.13;;;;;;;;;;5074617;28;20532;-75
2022/01/06 08:34:15;;;;;;;11.20;8.00;;;;;;;;;;5077461;28;20471;-75
2022/01/06 08:36:45;;;;;;;11.30;5.60;;;;;;;;;;5078525;28;20455;-77
2022/01/06 08:39:41;;;;;;;10.27;5.40;;;;;;;;;;5077259;28;20726;-75
2022/01/06 08:42:20;;;;;;;11.07;5.77;;;;;;;;;;5080505;28;21031;-76
2022/01/06 08:44:47;;;;;;;2.77;2.13;;;;;;;;;;5078212;28;20622;-74
2022/01/06 08:47:15;;;;;;;12.23;6.03;;;;;;;;;;5078290;28;20920;-74
2022/01/06 08:49:42;;;;;;;12.00;7.60;;;;;;;;;;5077097;28;20469;-74
2022/01/06 08:52:12;;;;;;;11.43;7.83;;;;;;;;;;5077196;28;20467;-74
2022/01/06 08:54:42;;;;;;;12.20;7.20;;;;;;;;;;5076204;28;20472;-73
2022/01/06 08:57:14;;;;;;;14.57;8.17;;;;;;;;;;5076439;28;20453;-74
2022/01/06 08:59:51;;;;;;;12.37;6.53;;;;;;;;;;5077117;28;20464;-74
2022/01/06 09:02:22;;;;;;;13.10;5.40;;;;;;;;;;5058044;28;20752;-73
2022/01/06 09:05:15;;;;;;;18.17;7.97;;;;;;;;;;5059540;28;20448;-74
2022/01/06 09:07:45;;;;;;;11.20;6.37;;;;;;;;;;5078196;28;20794;-73
2022/01/06 09:10:23;;;;;;;5.63;3.73;;;;;;;;;;5076362;28;20465;-73
2022/01/06 09:12:56;;;;;;;6.93;4.00;;;;;;;;;;5076439;28;20491;-73
2022/01/06 09:15:28;;;;;;;4.83;3.17;;;;;;;;;;5076536;28;20753;-72
2022/01/06 09:18:15;;;;;;;4.17;2.70;;;;;;;;;;5076728;28;20745;-72
2022/01/06 09:20:51;;;;;;;7.13;4.13;;;;;;;;;;5078166;28;20769;-73
2022/01/06 09:23:22;;;;;;;14.97;3.83;;;;;;;;;;5078192;28;20543;-72
2022/01/06 09:26:04;;;;;;;8.53;3.47;;;;;;;;;;5079012;28;20557;-73
2022/01/06 09:28:32;;;;;;;6.40;3.13;;;;;;;;;;5077340;28;20452;-72
2022/01/06 09:31:00;;;;;;;4.07;2.60;;;;;;;;;;5078430;28;20870;-73
2022/01/06 09:33:57;;;;;;;5.23;1.80;;;;;;;;;;5078966;28;20448;-72
2022/01/06 09:36:31;;;;;;;7.07;3.47;;;;;;;;;;5079614;28;20446;-72
2022/01/06 09:39:13;;;;;;;5.57;2.40;;;;;;;;;;5078646;28;20903;-72
2022/01/06 09:47:54;;;;;;;7.87;3.50;;;;;;;;;;5076742;28;20480;-74
2022/01/06 09:50:24;;;;;;;4.13;2.67;;;;;;;;;;5073541;28;20460;-73
2022/01/06 09:52:59;;;;;;;3.87;2.33;;;;;;;;;;5078823;28;20448;-73
2022/01/06 09:55:34;;;;;;;16.10;3.60;;;;;;;;;;5077794;28;20547;-73
2022/01/06 09:58:07;;;;;;;8.23;4.17;;;;;;;;;;5077746;28;20440;-72
2022/01/06 10:00:46;;;;;;;18.63;5.10;;;;;;;;;;5058144;28;20483;-73
2022/01/06 10:03:23;;;;;;;8.63;3.83;;;;;;;;;;5066404;28;20733;-74
2022/01/06 10:05:58;;;;;;;7.30;4.40;;;;;;;;;;5076624;28;20460;-72
2022/01/06 10:08:29;;;;;;;8.43;3.43;;;;;;;;;;5071257;28;20671;-73
2022/01/06 10:14:04;;;;;;;5.10;2.30;;;;;;;;;;5074866;28;20464;-73
2022/01/06 10:16:38;;;;;;;6.17;1.97;;;;;;;;;;5071798;28;20540;-73
2022/01/06 10:19:09;;;;;;;12.67;5.40;;;;;;;;;;5077432;28;20445;-73
2022/01/06 10:21:40;;;;;;;11.37;3.23;;;;;;;;;;5077726;28;20476;-73
2022/01/06 10:24:12;;;;;;;3.07;2.00;;;;;;;;;;5077855;28;20455;-73
2022/01/06 10:26:51;;;;;;;3.00;2.13;;;;;;;;;;5078337;28;20449;-73
2022/01/06 10:29:29;;;;;;;3.87;2.00;;;;;;;;;;5077983;28;20460;-73
2022/01/06 10:32:11;;;;;;;3.90;2.20;;;;;;;;;;5078479;28;20479;-73
2022/01/06 10:34:49;;;;;;;9.13;4.83;;;;;;;;;;5081167;28;20490;-73
2022/01/06 10:37:30;;;;;;;5.00;2.20;;;;;;;;;;5076896;28;20485;-73
2022/01/06 10:40:03;;;;;;;5.27;2.53;;;;;;;;;;5077955;28;20460;-72
2022/01/06 10:42:40;;;;;;;8.90;3.30;;;;;;;;;;5078014;28;20451;-71
2022/01/06 10:45:13;;;;;;;3.70;1.90;;;;;;;;;;5077274;28;20461;-73
2022/01/06 10:47:42;;;;;;;5.50;3.33;;;;;;;;;;5076950;28;20449;-73
2022/01/06 10:50:11;;;;;;;7.10;3.70;;;;;;;;;;5076366;28;20456;-72
2022/01/06 10:52:43;;;;;;;7.37;3.73;;;;;;;;;;5075169;28;20498;-72
2022/01/06 10:55:17;;;;;;;10.33;6.00;;;;;;;;;;5073656;28;20455;-74
2022/01/06 10:57:54;;;;;;;4.87;3.10;;;;;;;;;;5075161;28;20459;-74
2022/01/06 11:00:26;;;;;;;7.80;3.87;;;;;;;;;;5073979;28;20499;-73
2022/01/06 11:03:07;;;;;;;4.00;2.30;;;;;;;;;;5058410;28;20483;-72
2022/01/06 11:05:37;;;;;;;5.90;3.20;;;;;;;;;;5075488;28;20460;-72
2022/01/06 11:08:26;;;;;;;6.30;2.97;;;;;;;;;;5074826;28;20465;-71
2022/01/06 11:11:15;;;;;;;8.87;4.40;;;;;;;;;;5074634;28;20471;-71
2022/01/06 11:13:47;;;;;;;5.47;3.57;;;;;;;;;;5071874;28;20741;-73
2022/01/06 11:16:16;;;;;;;7.17;3.60;;;;;;;;;;5072712;28;20577;-73
2022/01/06 11:18:52;;;;;;;6.43;2.63;;;;;;;;;;5072978;28;20455;-74
2022/01/06 11:21:26;;;;;;;10.23;3.77;;;;;;;;;;5074796;28;20552;-74
2022/01/06 11:24:13;;;;;;;6.93;3.40;;;;;;;;;;5074434;28;20456;-72
2022/01/06 11:26:40;;;;;;;5.07;1.90;;;;;;;;;;5074568;28;20463;-72
2022/01/06 11:29:15;;;;;;;10.43;3.10;;;;;;;;;;5076574;28;20541;-72
2022/01/06 11:31:56;;;;;;;4.70;2.80;;;;;;;;;;5067292;28;20491;-73
2022/01/06 11:34:32;;;;;;;4.20;2.80;;;;;;;;;;5077200;28;20525;-73
2022/01/06 11:37:16;;;;;;;8.13;2.73;;;;;;;;;;5077747;28;20459;-73
2022/01/06 11:39:48;;;;;;;6.83;2.60;;;;;;;;;;5076040;28;20467;-73
2022/01/06 11:42:20;;;;;;;13.50;6.93;;;;;;;;;;5066914;28;20546;-74
2022/01/06 11:44:52;;;;;;;8.30;4.03;;;;;;;;;;5055464;28;20441;-73
2022/01/06 11:47:29;;;;;;;4.03;2.20;;;;;;;;;;5075764;28;20460;-72
2022/01/06 11:50:11;;;;;;;6.87;3.10;;;;;;;;;;5073807;28;20448;-72
2022/01/06 11:52:49;;;;;;;7.03;4.00;;;;;;;;;;5075040;28;20494;-73
2022/01/06 11:55:17;;;;;;;7.00;5.00;;;;;;;;;;5074964;28;20796;-73
2022/01/06 11:57:47;;;;;;;6.50;3.50;;;;;;;;;;5074561;28;20460;-72
2022/01/06 12:00:15;;;;;;;4.30;2.20;;;;;;;;;;5075324;28;21017;-72
2022/01/06 12:02:47;;;;;;;5.17;3.20;;;;;;;;;;5074724;28;20864;-73
2022/01/06 12:05:15;;;;;;;6.73;4.27;;;;;;;;;;5074356;28;20533;-73
2022/01/06 12:07:56;;;;;;;3.70;1.83;;;;;;;;;;5076693;28;20463;-72
2022/01/06 12:10:23;;;;;;;4.30;2.90;;;;;;;;;;5077649;28;20535;-73
2022/01/06 12:13:12;;;;;;;4.93;3.20;;;;;;;;;;5080058;28;20522;-73
2022/01/06 12:15:49;;;;;;;8.67;3.30;;;;;;;;;;5078219;28;20480;-72
2022/01/06 12:18:38;;;;;;;7.50;3.90;;;;;;;;;;5078005;28;20553;-74
2022/01/06 12:21:22;;;;;;;3.97;2.73;;;;;;;;;;5079263;28;20487;-72
2022/01/06 12:24:04;;;;;;;3.73;2.60;;;;;;;;;;5078345;28;20452;-71
2022/01/06 12:26:42;;;;;;;7.63;4.33;;;;;;;;;;5077275;28;20446;-73
2022/01/06 12:29:14;;;;;;;8.13;4.20;;;;;;;;;;5061276;28;20441;-72
2022/01/06 12:31:42;;;;;;;6.60;3.67;;;;;;;;;;5060791;28;20473;-72
2022/01/06 12:34:10;;;;;;;7.30;3.17;;;;;;;;;;5070394;28;20803;-72
2022/01/06 12:36:40;;;;;;;5.63;2.90;;;;;;;;;;5079901;28;20456;-72
2022/01/06 12:39:20;;;;;;;9.57;4.97;;;;;;;;;;5078896;28;20514;-70
2022/01/06 12:41:47;;;;;;;9.20;3.93;;;;;;;;;;5079149;28;20495;-73
2022/01/06 12:44:19;;;;;;;11.63;3.90;;;;;;;;;;5077482;28;20445;-72
2022/01/06 12:46:47;;;;;;;6.63;3.80;;;;;;;;;;5076924;28;20506;-72
2022/01/06 12:49:16;;;;;;;8.57;4.10;;;;;;;;;;5068615;28;20460;-71
2022/01/06 12:51:48;;;;;;;3.70;2.20;;;;;;;;;;5075570;28;20525;-72
2022/01/06 12:54:18;;;;;;;9.33;4.53;;;;;;;;;;5075120;28;20519;-72
2022/01/06 12:57:02;;;;;;;6.20;1.87;;;;;;;;;;5072745;28;20453;-72
2022/01/06 12:59:39;;;;;;;6.50;2.37;;;;;;;;;;5078070;28;20469;-72
2022/01/06 13:02:12;;;;;;;4.23;2.90;;;;;;;;;;5075452;28;20825;-72
2022/01/06 13:04:51;;;;;;;15.37;3.70;;;;;;;;;;5072059;28;20876;-72
2022/01/06 13:07:22;;;;;;;3.93;2.70;;;;;;;;;;5077972;28;20493;-72
2022/01/06 13:09:57;;;;;;;2.80;1.67;;;;;;;;;;5075028;28;20692;-71
2022/01/06 13:12:35;;;;;;;3.57;1.90;;;;;;;;;;5066013;28;20853;-71
2022/01/06 13:15:03;;;;;;;4.77;3.23;;;;;;;;;;5078725;28;20726;-71
2022/01/06 13:17:45;;;;;;;7.87;3.03;;;;;;;;;;5078255;28;20567;-73
2022/01/06 13:20:19;;;;;;;5.13;3.10;;;;;;;;;;5076833;28;20729;-73
2022/01/06 13:23:00;;;;;;;8.90;3.10;;;;;;;;;;5077694;28;20445;-71
2022/01/06 13:25:55;;;;;;;4.13;2.33;;;;;;;;;;5076610;28;20924;-74
2022/01/06 13:28:34;;;;;;;3.60;1.80;;;;;;;;;;5073765;28;20502;-73
2022/01/06 13:31:22;;;;;;;5.63;2.97;;;;;;;;;;5076192;28;20460;-73
2022/01/06 13:33:59;;;;;;;3.67;2.70;;;;;;;;;;5067928;28;20446;-72
2022/01/06 13:36:33;;;;;;;4.97;3.47;;;;;;;;;;5075932;28;20433;-71
2022/01/06 13:39:16;;;;;;;6.50;4.70;;;;;;;;;;5061297;28;20442;-72
2022/01/06 13:42:01;;;;;;;;;;;;;;;;;;;;;
2022/01/06 13:44:30;;;;;;;9.93;6.33;;;;;;;;;;5072417;28;20993;-72
2022/01/06 13:47:11;;;;;;;5.37;3.80;;;;;;;;;;5075665;28;20464;-72
2022/01/06 13:55:21;;;;;;;6.10;3.93;;;;;;;;;;5072913;28;20462;-72
2022/01/06 13:58:04;;;;;;;5.80;3.67;;;;;;;;;;5056824;28;20465;-73
2022/01/06 14:00:58;;;;;;;5.93;3.27;;;;;;;;;;5066405;28;20601;-72
2022/01/06 14:03:31;;;;;;;3.23;2.00;;;;;;;;;;5060252;28;20884;-70
2022/01/06 14:06:03;;;;;;;7.63;3.53;;;;;;;;;;5075139;28;20866;-72
2022/01/06 14:08:37;;;;;;;8.40;4.27;;;;;;;;;;5074099;28;20907;-72
2022/01/06 14:14:05;;;;;;;5.60;3.00;;;;;;;;;;5065074;28;20790;-71
2022/01/06 14:16:32;;;;;;;8.67;3.73;;;;;;;;;;5059768;28;20473;-71
2022/01/06 14:18:59;;;;;;;5.80;3.70;;;;;;;;;;5056134;28;20587;-70
2022/01/06 14:21:30;;;;;;;4.50;2.60;;;;;;;;;;5054069;28;20561;-70
2022/01/06 14:24:05;;;;;;;7.00;3.50;;;;;;;;;;5069767;28;20567;-71
2022/01/06 14:29:19;;;;;;;15.07;7.23;;;;;;;;;;5071923;28;20543;-71
2022/01/06 14:31:50;;;;;;;7.93;4.77;;;;;;;;;;5075023;28;20465;-71
2022/01/06 14:34:17;;;;;;;7.30;2.90;;;;;;;;;;5073447;28;20582;-71
2022/01/06 14:36:44;;;;;;;4.30;1.87;;;;;;;;;;5064430;28;20457;-71
2022/01/06 14:39:11;;;;;;;23.90;3.13;;;;;;;;;;5055677;28;20710;-71
2022/01/06 14:41:41;;;;;;;9.23;3.30;;;;;;;;;;5056641;28;20485;-71
2022/01/06 14:44:12;;;;;;;9.73;4.73;;;;;;;;;;5066430;28;20452;-72
2022/01/06 14:49:58;;;;;;;;;;;;;;;;;;;;;
2022/01/06 14:52:27;;;;;;;6.27;3.23;;;;;;;;;;5061170;28;20450;-72
2022/01/06 14:54:54;;;;;;;3.30;1.97;;;;;;;;;;5073574;28;20512;-73
2022/01/06 14:57:21;;;;;;;5.37;2.10;;;;;;;;;;5074504;28;20888;-72
2022/01/06 14:59:49;;;;;;;5.00;2.40;;;;;;;;;;5060685;28;21089;-70
2022/01/06 15:02:37;;;;;;;9.70;5.63;;;;;;;;;;5075478;28;20940;-72
2022/01/06 15:08:10;;;;;;;8.40;2.80;;;;;;;;;;5060318;28;20464;-71
2022/01/06 15:10:40;;;;;;;15.17;3.73;;;;;;;;;;5073682;28;20551;-73
2022/01/06 15:13:13;;;;;;;7.60;3.80;;;;;;;;;;5065170;28;20460;-73
2022/01/06 15:16:26;;;;;;;7.97;4.37;;;;;;;;;;5063428;28;20464;-72
2022/01/06 15:19:08;;;;;;;7.80;3.10;;;;;;;;;;5041144;28;20601;-72
2022/01/06 15:21:41;;;;;;;10.53;4.60;;;;;;;;;;5079809;27;20495;-73
2022/01/06 15:24:38;;;;;;;7.13;2.90;;;;;;;;;;5097177;27;20546;-72
2022/01/06 15:30:19;;;;;;;7.87;3.80;;;;;;;;;;5090192;28;20432;-73
2022/01/06 15:33:18;;;;;;;3.60;2.33;;;;;;;;;;5093015;28;20490;-73
2022/01/06 15:41:25;;;;;;;11.77;7.13;;;;;;;;;;5093812;27;21139;-72
2022/01/06 15:44:08;;;;;;;15.80;6.10;;;;;;;;;;5108713;28;20439;-72
2022/01/06 15:46:47;;;;;;;13.53;7.40;;;;;;;;;;5096863;28;20455;-73
2022/01/06 15:52:31;;;;;;;19.47;9.53;;;;;;;;;;4927043;28;4626455;-72